Metar Aviation Weather Data ENHD

6°C Temp
2°C Dewpoint
% Humidity
Temperature
40 KM/H
25 MPH
22 KTS
290°
West North
West

Wind Speed
Partly Cloudy
Conditions
Pressure 991.92 (hPa) - 29.29 (in)
Visibility 6.2 (mi) - 10 (km)

Current Conditions
ENHD
Metar :ENHD 212220Z AUTO 29022KT 9999 FEW021/// SCT074/// BKN094/// 06/02 Q0992
Fri 22nd October 00:20 am

  Metar Aviation API Data Provided by https://www.checkwx.com/ PHP scripts by weather34.com ©2021